Time;durP1;ratioP1;P1;durP2;ratioP2;P2;SDS_P1;SDS_P2;PMS_P1;PMS_P2;Temp;Humidity;BMP_temperature;BMP_pressure;BME280_temperature;BME280_humidity;BME280_pressure;Samples;Min_cycle;Max_cycle;Signal;HPM_P1;HPM_P2
2022/11/21 00:01:59;;;;;;;13.50;9.97;;;-0.30;99.90;;;;;;5009386;28;20619;-78
2022/11/21 00:04:24;;;;;;;15.50;10.43;;;-0.40;99.90;;;;;;5008938;28;20259;-78
2022/11/21 00:06:51;;;;;;;12.93;9.90;;;-0.40;99.90;;;;;;5009362;28;20171;-78
2022/11/21 00:09:17;;;;;;;14.67;10.93;;;-0.30;99.90;;;;;;5008205;28;20186;-78
2022/11/21 00:11:43;;;;;;;14.63;11.20;;;-0.30;99.90;;;;;;5008810;28;20541;-78
2022/11/21 00:14:08;;;;;;;14.17;10.33;;;-0.40;99.90;;;;;;5008070;28;20195;-77
2022/11/21 00:16:34;;;;;;;13.87;10.60;;;-0.40;99.90;;;;;;5008966;28;20653;-76
2022/11/21 00:18:59;;;;;;;13.77;10.30;;;-0.30;99.90;;;;;;5008604;28;20183;-77
2022/11/21 00:21:25;;;;;;;13.40;10.80;;;-0.20;99.90;;;;;;5008532;28;20191;-78
2022/11/21 00:23:51;;;;;;;16.97;11.80;;;-0.20;99.90;;;;;;5006575;28;20264;-75
2022/11/21 00:26:17;;;;;;;14.63;10.97;;;-0.30;99.90;;;;;;5009229;28;20207;-76
2022/11/21 00:28:43;;;;;;;15.50;11.50;;;-0.30;99.90;;;;;;5008724;28;20588;-77
2022/11/21 00:31:18;;;;;;;12.83;10.67;;;-0.30;99.90;;;;;;5012841;28;20180;-76
2022/11/21 00:33:43;;;;;;;13.57;10.43;;;0.10;99.90;;;;;;5009611;28;20230;-77
2022/11/21 00:36:09;;;;;;;14.17;11.57;;;-0.40;99.90;;;;;;5011035;28;20269;-74
2022/11/21 00:38:35;;;;;;;15.27;11.83;;;0.10;99.90;;;;;;5009257;28;20192;-76
2022/11/21 00:41:01;;;;;;;15.50;12.43;;;-0.60;99.90;;;;;;5011594;28;20681;-76
2022/11/21 00:43:26;;;;;;;15.27;11.60;;;-0.60;99.90;;;;;;5011636;28;20273;-79
2022/11/21 00:45:52;;;;;;;16.33;12.63;;;-0.70;99.90;;;;;;5011841;28;20214;-76
2022/11/21 00:48:18;;;;;;;17.93;12.63;;;-0.70;99.90;;;;;;5012011;28;20182;-79
2022/11/21 00:50:46;;;;;;;17.33;12.80;;;-0.70;99.90;;;;;;5010151;28;20219;-76
2022/11/21 00:53:12;;;;;;;20.10;13.53;;;-0.70;99.90;;;;;;5009410;28;20190;-77
2022/11/21 00:55:37;;;;;;;17.60;13.90;;;-0.70;99.90;;;;;;5008874;28;20212;-76
2022/11/21 00:58:03;;;;;;;19.07;13.37;;;-0.70;99.90;;;;;;5007952;28;20195;-77
2022/11/21 01:00:28;;;;;;;16.97;12.33;;;-0.60;99.90;;;;;;5008710;28;20215;-78
2022/11/21 01:02:55;;;;;;;15.47;12.20;;;-0.60;1.00;;;;;;5008176;28;20343;-75
2022/11/21 01:05:20;;;;;;;17.80;13.80;;;-0.60;1.00;;;;;;5008127;28;20196;-78
2022/11/21 01:07:48;;;;;;;15.87;12.17;;;-0.60;1.00;;;;;;5008026;28;20184;-76
2022/11/21 01:10:13;;;;;;;15.40;11.80;;;-0.60;1.00;;;;;;5008344;28;20184;-78
2022/11/21 01:12:39;;;;;;;18.60;13.37;;;-0.80;1.00;;;;;;5008615;28;20641;-78
2022/11/21 01:15:05;;;;;;;19.00;14.37;;;-0.60;1.00;;;;;;5006693;28;20282;-75
2022/11/21 01:17:32;;;;;;;17.13;12.83;;;-0.70;1.00;;;;;;5008768;28;20218;-77
2022/11/21 01:19:58;;;;;;;15.53;11.97;;;-0.60;1.00;;;;;;5007939;28;20699;-78
2022/11/21 01:22:23;;;;;;;15.33;12.03;;;-0.40;1.00;;;;;;5008497;28;20199;-77
2022/11/21 01:24:49;;;;;;;18.13;13.57;;;-0.40;1.00;;;;;;5008183;28;20215;-76
2022/11/21 01:27:14;;;;;;;18.17;13.40;;;-0.40;99.90;;;;;;5008498;28;20903;-77
2022/11/21 01:29:40;;;;;;;17.33;13.30;;;-0.40;99.90;;;;;;5007765;28;20210;-78
2022/11/21 01:32:06;;;;;;;16.80;13.07;;;-0.50;99.90;;;;;;5008836;28;20202;-77
2022/11/21 01:34:31;;;;;;;17.03;13.60;;;-0.50;99.90;;;;;;5006632;28;20234;-76
2022/11/21 01:36:57;;;;;;;13.83;11.40;;;-0.60;99.90;;;;;;5007890;28;20191;-75
2022/11/21 01:39:22;;;;;;;15.50;11.73;;;-0.60;99.90;;;;;;5007826;28;20294;-78
2022/11/21 01:41:48;;;;;;;15.63;12.40;;;-0.60;99.90;;;;;;5007527;28;21248;-77
2022/11/21 01:44:26;;;;;;;15.50;12.20;;;-0.70;99.90;;;;;;5007469;28;20594;-76
2022/11/21 01:46:52;;;;;;;14.23;11.47;;;-0.60;99.90;;;;;;5006532;28;20179;-77
2022/11/21 01:49:26;;;;;;;14.53;11.10;;;-0.60;99.90;;;;;;5006912;28;20287;-77
2022/11/21 01:52:10;;;;;;;13.27;9.90;;;-0.60;99.90;;;;;;5007756;28;20182;-77
2022/11/21 01:55:08;;;;;;;13.40;10.23;;;-0.50;99.90;;;;;;5006710;28;20206;-74
2022/11/21 01:57:42;;;;;;;14.33;10.70;;;-0.70;99.90;;;;;;5009741;28;20179;-76
2022/11/21 02:00:16;;;;;;;15.47;11.70;;;-0.80;99.90;;;;;;5010689;28;20189;-76
2022/11/21 02:02:49;;;;;;;16.40;11.47;;;-0.80;1.00;;;;;;5008987;28;20199;-77
2022/11/21 02:05:21;;;;;;;16.87;11.77;;;-0.80;1.00;;;;;;5007499;28;20207;-76
2022/11/21 02:07:48;;;;;;;15.80;12.47;;;-0.80;1.00;;;;;;5007795;28;20223;-75
2022/11/21 02:10:15;;;;;;;15.40;12.13;;;-0.70;1.00;;;;;;5007183;28;20197;-75
2022/11/21 02:12:52;;;;;;;16.63;12.80;;;-0.70;1.00;;;;;;5010904;28;20188;-77
2022/11/21 02:15:23;;;;;;;18.97;13.03;;;-0.70;1.00;;;;;;5008447;28;20226;-78
2022/11/21 02:17:49;;;;;;;18.90;12.83;;;-0.80;1.00;;;;;;5010123;28;20672;-76
2022/11/21 02:20:21;;;;;;;17.67;12.93;;;-0.90;1.00;;;;;;5009933;28;20198;-78
2022/11/21 02:23:08;;;;;;;18.00;12.53;;;-0.80;1.00;;;;;;5012029;28;20247;-78
2022/11/21 02:25:36;;;;;;;18.03;13.30;;;-0.80;1.00;;;;;;5013916;28;20207;-76
2022/11/21 02:28:23;;;;;;;18.83;13.93;;;-0.90;1.00;;;;;;5013474;28;20891;-78
2022/11/21 02:30:49;;;;;;;21.55;17.80;;;-0.90;1.00;;;;;;5013025;28;20430;-77
2022/11/21 02:33:15;;;;;;;18.17;14.33;;;-0.90;1.00;;;;;;5009733;28;20188;-78
2022/11/21 02:35:41;;;;;;;19.77;13.90;;;-0.90;1.00;;;;;;5011877;28;20243;-78
2022/11/21 02:38:23;;;;;;;18.53;13.37;;;-0.90;1.00;;;;;;5010959;28;20187;-78
2022/11/21 02:41:25;;;;;;;17.60;13.17;;;-0.90;1.00;;;;;;5011630;28;20642;-75
2022/11/21 02:43:55;;;;;;;16.63;12.83;;;-0.90;1.00;;;;;;5011177;28;20242;-73
2022/11/21 02:46:21;;;;;;;18.57;13.20;;;-0.90;1.00;;;;;;5011067;28;20215;-76
2022/11/21 02:48:47;;;;;;;15.87;12.57;;;-0.90;1.00;;;;;;5010963;28;20187;-77
2022/11/21 02:51:12;;;;;;;18.53;13.50;;;-0.90;1.00;;;;;;5009651;28;20182;-77
2022/11/21 02:53:38;;;;;;;16.30;12.97;;;-0.90;1.00;;;;;;5007292;28;20204;-75
2022/11/21 02:56:04;;;;;;;17.43;13.63;;;-0.20;1.00;;;;;;5007415;28;20202;-74
2022/11/21 02:58:29;;;;;;;20.07;14.37;;;-0.90;1.00;;;;;;5006720;28;20184;-74
2022/11/21 03:00:55;;;;;;;16.80;12.70;;;-0.90;1.00;;;;;;5010997;28;20676;-79
2022/11/21 03:03:21;;;;;;;16.30;12.70;;;-0.90;1.00;;;;;;5012297;28;21261;-78
2022/11/21 03:05:47;;;;;;;17.97;12.73;;;-0.80;1.00;;;;;;5011366;28;20210;-77
2022/11/21 03:08:13;;;;;;;18.33;13.80;;;-0.80;1.00;;;;;;5013250;28;21111;-75
2022/11/21 03:10:38;;;;;;;17.90;13.80;;;-0.80;1.00;;;;;;5013324;28;20249;-79
2022/11/21 03:13:04;;;;;;;19.40;13.53;;;-0.80;1.00;;;;;;5013682;28;20222;-77
2022/11/21 03:15:32;;;;;;;18.17;13.47;;;-0.80;1.00;;;;;;5013502;28;20219;-79
2022/11/21 03:17:57;;;;;;;20.00;14.53;;;-0.80;1.00;;;;;;5012266;28;20188;-76
2022/11/21 03:20:23;;;;;;;18.77;14.17;;;-0.90;99.90;;;;;;5010643;28;20267;-75
2022/11/21 03:22:49;;;;;;;18.73;13.63;;;-1.00;1.00;;;;;;5009535;28;20212;-77
2022/11/21 03:25:15;;;;;;;17.57;13.60;;;-1.10;1.00;;;;;;5007124;28;20210;-77
2022/11/21 03:27:41;;;;;;;20.33;14.10;;;-1.10;1.00;;;;;;5007508;28;20258;-77
2022/11/21 03:30:07;;;;;;;20.50;13.87;;;-1.20;1.00;;;;;;5011245;28;20213;-79
2022/11/21 03:32:33;;;;;;;19.27;13.97;;;-1.20;1.00;;;;;;5011080;28;20657;-75
2022/11/21 03:34:58;;;;;;;19.03;14.17;;;-1.20;1.00;;;;;;5010897;28;20293;-78
2022/11/21 03:37:24;;;;;;;19.93;14.60;;;-0.90;1.00;;;;;;5009607;28;20569;-78
2022/11/21 03:39:49;;;;;;;18.67;13.37;;;-0.10;1.00;;;;;;5011206;28;20223;-75
2022/11/21 03:42:15;;;;;;;17.77;13.40;;;-0.50;1.00;;;;;;5012088;28;20847;-77
2022/11/21 03:44:41;;;;;;;21.60;14.90;;;-0.60;99.90;;;;;;5014385;28;20210;-76
2022/11/21 03:47:06;;;;;;;19.80;14.23;;;-0.60;99.90;;;;;;5014661;28;20213;-75
2022/11/21 03:49:32;;;;;;;21.90;14.67;;;-0.70;99.90;;;;;;5012467;28;20184;-77
2022/11/21 03:51:57;;;;;;;20.40;14.27;;;-0.60;99.90;;;;;;5013583;28;20743;-79
2022/11/21 03:54:23;;;;;;;22.47;15.17;;;-0.60;99.90;;;;;;5010317;28;20184;-77
2022/11/21 03:56:49;;;;;;;19.47;14.07;;;-0.60;99.90;;;;;;5013076;28;20223;-75
2022/11/21 03:59:14;;;;;;;18.43;13.27;;;-0.50;99.90;;;;;;5008888;28;20187;-79
2022/11/21 04:01:40;;;;;;;20.13;14.70;;;-0.50;99.90;;;;;;5012346;28;20230;-78
2022/11/21 04:04:05;;;;;;;20.80;14.07;;;-0.50;99.90;;;;;;5012278;28;20304;-74
2022/11/21 04:06:31;;;;;;;18.37;14.17;;;-0.60;99.90;;;;;;5011936;28;20200;-78
2022/11/21 04:08:57;;;;;;;20.17;13.90;;;-0.50;99.90;;;;;;5011856;28;20230;-77
2022/11/21 04:11:23;;;;;;;22.17;15.30;;;-0.50;99.90;;;;;;5012373;28;20247;-78
2022/11/21 04:13:52;;;;;;;25.47;17.83;;;-0.60;99.90;;;;;;5010788;28;20191;-78
2022/11/21 04:16:17;;;;;;;23.27;16.70;;;-0.70;99.90;;;;;;5010622;28;20247;-78
2022/11/21 04:18:43;;;;;;;29.50;20.67;;;-0.70;99.90;;;;;;5011564;28;20180;-77
2022/11/21 04:21:10;;;;;;;27.17;19.40;;;-0.70;99.90;;;;;;5011669;28;20192;-77
2022/11/21 04:23:35;;;;;;;22.60;16.03;;;-0.70;99.90;;;;;;5011186;28;20212;-76
2022/11/21 04:26:01;;;;;;;21.97;16.57;;;-0.70;1.00;;;;;;5010745;28;20362;-78
2022/11/21 04:28:27;;;;;;;20.67;15.37;;;-0.60;1.00;;;;;;5009662;28;20206;-78
2022/11/21 04:30:53;;;;;;;23.07;16.90;;;-0.30;1.00;;;;;;5010249;28;21054;-76
2022/11/21 04:33:18;;;;;;;22.60;16.60;;;-0.60;99.90;;;;;;5009890;28;20195;-78
2022/11/21 04:35:45;;;;;;;24.53;16.57;;;-0.50;1.00;;;;;;5010677;28;20210;-75
2022/11/21 04:38:12;;;;;;;34.97;20.40;;;-0.40;99.90;;;;;;5011259;28;20183;-76
2022/11/21 04:40:37;;;;;;;40.00;24.33;;;-0.50;99.90;;;;;;5010209;28;20179;-77
2022/11/21 04:43:03;;;;;;;45.50;25.10;;;-0.50;99.90;;;;;;5010951;28;20342;-78
2022/11/21 04:45:29;;;;;;;30.17;20.20;;;-0.60;99.90;;;;;;5011169;28;20653;-78
2022/11/21 04:47:54;;;;;;;28.07;19.37;;;-0.60;99.90;;;;;;5005700;28;20198;-74
2022/11/21 04:50:21;;;;;;;26.30;19.37;;;-0.60;99.90;;;;;;5011455;28;20186;-79
2022/11/21 04:52:51;;;;;;;27.00;18.97;;;-0.60;99.90;;;;;;5010743;28;20183;-77
2022/11/21 04:55:18;;;;;;;24.73;17.70;;;-0.60;99.90;;;;;;5009501;28;20282;-77
2022/11/21 04:57:43;;;;;;;26.10;22.42;;;-0.50;99.90;;;;;;5009733;28;20419;-77
2022/11/21 05:00:09;;;;;;;23.23;17.73;;;-0.50;99.90;;;;;;5008618;28;20205;-75
2022/11/21 05:02:35;;;;;;;23.47;17.20;;;-0.50;99.90;;;;;;5009563;28;20551;-75
2022/11/21 05:05:01;;;;;;;22.13;18.43;;;-0.60;99.90;;;;;;5009638;28;20692;-78
2022/11/21 05:07:26;;;;;;;20.73;16.50;;;-0.50;99.90;;;;;;5010155;28;20184;-76
2022/11/21 05:09:52;;;;;;;22.10;16.67;;;-0.40;99.90;;;;;;5009942;28;20558;-78
2022/11/21 05:15:01;;;;;;;22.60;15.57;;;-0.30;99.90;;;;;;5008201;28;20234;-76
2022/11/21 05:17:28;;;;;;;21.43;15.53;;;-0.30;99.90;;;;;;5007378;28;20191;-78
2022/11/21 05:19:53;;;;;;;20.70;15.30;;;-0.20;99.90;;;;;;5008610;28;20195;-75
2022/11/21 05:22:19;;;;;;;22.63;15.77;;;-0.30;99.90;;;;;;5008036;28;20241;-78
2022/11/21 05:24:45;;;;;;;19.67;14.90;;;-0.50;99.90;;;;;;5008761;28;20839;-78
2022/11/21 05:27:10;;;;;;;22.50;15.73;;;-0.30;99.90;;;;;;5007940;28;20184;-76
2022/11/21 05:29:36;;;;;;;22.07;16.13;;;-0.60;99.90;;;;;;5008157;28;20663;-74
2022/11/21 05:32:01;;;;;;;19.57;15.50;;;-0.50;99.90;;;;;;5007323;28;20188;-78
2022/11/21 05:34:27;;;;;;;22.90;15.23;;;-0.40;99.90;;;;;;5004267;28;20176;-77
2022/11/21 05:36:59;;;;;;;21.80;15.97;;;-0.50;99.90;;;;;;5004586;28;20270;-77
2022/11/21 05:39:25;;;;;;;22.70;15.73;;;-0.50;99.90;;;;;;5004437;28;20191;-77
2022/11/21 05:41:51;;;;;;;24.30;16.80;;;-0.50;99.90;;;;;;5000858;28;20184;-78
2022/11/21 05:44:17;;;;;;;20.70;15.80;;;-0.50;99.90;;;;;;5003890;28;20188;-77
2022/11/21 05:46:43;;;;;;;20.27;15.57;;;-0.70;99.90;;;;;;5004061;28;20664;-77
2022/11/21 05:49:09;;;;;;;18.73;14.53;;;-0.60;99.90;;;;;;5004381;28;20222;-77
2022/11/21 05:51:35;;;;;;;23.23;16.93;;;-0.70;99.90;;;;;;5004639;28;20649;-76
2022/11/21 05:54:00;;;;;;;23.30;16.13;;;-0.90;99.90;;;;;;5004497;28;20188;-77
2022/11/21 05:56:26;;;;;;;21.10;15.53;;;-1.00;99.90;;;;;;5007696;28;20210;-77
2022/11/21 05:58:54;;;;;;;23.03;16.90;;;-1.00;99.90;;;;;;5008408;28;20245;-78
2022/11/21 06:03:25;;;;;;;21.63;15.40;;;-1.10;99.90;;;;;;5008140;28;20195;-77
2022/11/21 06:04:06;;;;;;;23.23;16.23;;;-1.30;99.90;;;;;;5007554;28;20876;-77
2022/11/21 06:06:32;;;;;;;22.80;17.03;;;-1.10;99.90;;;;;;5007274;28;20207;-77
2022/11/21 06:08:57;;;;;;;25.67;17.80;;;-1.10;99.90;;;;;;5007923;28;20198;-77
2022/11/21 06:11:23;;;;;;;23.03;16.27;;;-1.40;99.90;;;;;;5007127;28;20800;-79
2022/11/21 06:13:50;;;;;;;23.33;16.37;;;-1.50;99.90;;;;;;5007287;28;20539;-77
2022/11/21 06:16:18;;;;;;;23.63;17.17;;;-1.20;99.90;;;;;;5007433;28;20223;-77
2022/11/21 06:18:45;;;;;;;23.43;16.47;;;-1.70;99.90;;;;;;5007426;28;20186;-78
2022/11/21 06:21:19;;;;;;;21.93;16.53;;;-1.90;99.90;;;;;;5008080;28;20215;-78
2022/11/21 06:23:46;;;;;;;26.27;17.50;;;-2.00;99.90;;;;;;5005883;28;20307;-77
2022/11/21 06:26:15;;;;;;;23.23;15.93;;;-2.10;99.90;;;;;;5007416;28;20231;-75
2022/11/21 06:28:41;;;;;;;24.53;16.47;;;-2.00;1.00;;;;;;5006039;28;20318;-77
2022/11/21 06:31:12;;;;;;;23.30;16.93;;;-2.10;1.00;;;;;;5007537;28;20192;-77
2022/11/21 06:33:39;;;;;;;30.83;20.77;;;-2.20;1.00;;;;;;5007070;28;20534;-77
2022/11/21 06:36:07;;;;;;;34.10;22.37;;;-2.10;1.00;;;;;;5007716;28;20212;-77
2022/11/21 06:38:33;;;;;;;30.80;21.50;;;-2.20;1.00;;;;;;5006965;28;20640;-77
2022/11/21 06:41:18;;;;;;;28.10;18.63;;;-2.30;1.00;;;;;;5007783;28;20198;-77
2022/11/21 06:43:44;;;;;;;27.80;19.73;;;-2.30;1.00;;;;;;5006495;28;20211;-75
2022/11/21 06:46:11;;;;;;;26.83;18.80;;;-2.40;1.00;;;;;;5005229;28;20195;-77
2022/11/21 06:48:37;;;;;;;28.83;19.63;;;-2.50;1.00;;;;;;5004656;28;20910;-74
2022/11/21 06:51:09;;;;;;;26.30;18.93;;;-2.50;1.00;;;;;;5007873;28;20184;-77
2022/11/21 06:53:35;;;;;;;25.97;17.63;;;-2.50;1.00;;;;;;5005122;28;20208;-76
2022/11/21 06:56:01;;;;;;;25.97;19.10;;;-2.60;1.00;;;;;;5007044;28;21171;-77
2022/11/21 06:58:28;;;;;;;27.93;18.33;;;-2.60;1.00;;;;;;5007123;28;20194;-77
2022/11/21 07:00:54;;;;;;;26.87;18.27;;;-2.60;1.00;;;;;;5009497;28;20203;-77
2022/11/21 07:03:20;;;;;;;26.97;18.07;;;-2.60;1.00;;;;;;5010059;28;20203;-78
2022/11/21 07:05:45;;;;;;;29.37;19.87;;;-2.70;1.00;;;;;;5008591;28;20235;-78
2022/11/21 07:08:11;;;;;;;27.93;18.30;;;-2.80;1.00;;;;;;5009965;28;20211;-77
2022/11/21 07:10:36;;;;;;;27.53;17.63;;;-2.90;1.00;;;;;;5010082;28;20263;-77
2022/11/21 07:13:20;;;;;;;30.13;18.70;;;-2.90;1.00;;;;;;5010660;28;20653;-75
2022/11/21 07:15:51;;;;;;;32.73;19.60;;;-2.90;1.00;;;;;;5010179;28;20246;-78
2022/11/21 07:18:18;;;;;;;28.60;18.90;;;-2.80;1.00;;;;;;5022514;28;20187;-78
2022/11/21 07:20:46;;;;;;;28.93;19.53;;;-2.60;1.00;;;;;;5009739;28;20278;-78
2022/11/21 07:23:12;;;;;;;28.10;19.80;;;-2.50;1.00;;;;;;5010080;28;20362;-78
2022/11/21 07:25:41;;;;;;;27.90;18.57;;;-2.30;1.00;;;;;;5025211;28;20200;-78
2022/11/21 07:28:08;;;;;;;30.53;20.43;;;-2.30;1.00;;;;;;5011523;28;20183;-75
2022/11/21 07:30:37;;;;;;;29.07;19.80;;;-2.10;34.60;;;;;;5014226;28;20367;-77
2022/11/21 07:33:05;;;;;;;27.67;19.10;;;-2.00;29.60;;;;;;5017219;28;20198;-77
2022/11/21 07:35:31;;;;;;;30.10;20.47;;;-1.90;1.00;;;;;;5010664;28;20207;-78
2022/11/21 07:37:57;;;;;;;26.93;19.33;;;-1.90;1.00;;;;;;5012161;28;20199;-76
2022/11/21 07:40:22;;;;;;;30.67;20.20;;;-1.90;1.00;;;;;;5011735;28;20206;-75
2022/11/21 07:42:48;;;;;;;26.87;19.30;;;-2.00;1.00;;;;;;5010667;28;20767;-76
2022/11/21 07:45:15;;;;;;;30.63;20.27;;;-2.10;1.00;;;;;;5009691;28;20207;-76
2022/11/21 07:47:41;;;;;;;28.87;18.53;;;-2.00;1.00;;;;;;5010055;28;20181;-77
2022/11/21 07:50:08;;;;;;;29.77;19.53;;;-1.70;1.00;;;;;;5011808;28;20566;-76
2022/11/21 07:52:34;;;;;;;24.80;18.17;;;-1.50;1.00;;;;;;5010357;28;20192;-76
2022/11/21 07:55:03;;;;;;;23.47;17.37;;;-1.50;1.00;;;;;;5007422;28;20215;-76
2022/11/21 07:57:29;;;;;;;25.10;18.43;;;-1.50;99.90;;;;;;5007142;28;20184;-77
2022/11/21 07:59:55;;;;;;;26.63;18.43;;;-1.50;99.90;;;;;;5007431;28;20559;-76
2022/11/21 08:02:23;;;;;;;26.03;18.33;;;-1.60;99.90;;;;;;5008006;28;20203;-77
2022/11/21 08:04:49;;;;;;;27.83;18.30;;;-1.50;99.90;;;;;;5004427;28;20207;-76
2022/11/21 08:07:16;;;;;;;26.50;20.17;;;-1.40;99.90;;;;;;5004118;28;20246;-76
2022/11/21 08:09:41;;;;;;;26.23;18.87;;;-1.30;99.90;;;;;;5005303;28;20202;-76
2022/11/21 08:12:07;;;;;;;26.63;19.67;;;-1.30;99.90;;;;;;5007526;28;20648;-76
2022/11/21 08:14:33;;;;;;;24.80;19.70;;;-1.20;99.90;;;;;;5006465;28;20273;-77
2022/11/21 08:16:59;;;;;;;25.80;18.77;;;-1.20;99.90;;;;;;5007154;28;20180;-76
2022/11/21 08:19:25;;;;;;;27.63;19.07;;;-1.20;99.90;;;;;;5006635;28;21096;-77
2022/11/21 08:21:50;;;;;;;26.57;18.40;;;-1.10;99.90;;;;;;5008465;28;20756;-78
2022/11/21 08:24:16;;;;;;;24.50;18.67;;;-1.10;99.90;;;;;;5006651;28;20211;-76
2022/11/21 08:26:43;;;;;;;24.50;18.33;;;-1.30;99.90;;;;;;5004675;28;20184;-76
2022/11/21 08:29:10;;;;;;;22.10;18.20;;;-1.00;99.90;;;;;;5005378;28;20207;-76
2022/11/21 08:31:36;;;;;;;24.20;17.90;;;-0.60;99.90;;;;;;5004580;28;20242;-76
2022/11/21 08:34:02;;;;;;;28.37;19.83;;;;;;;;;;5005721;28;20268;-75
2022/11/21 08:36:28;;;;;;;27.10;19.60;;;-0.70;99.90;;;;;;5004762;28;20273;-77
2022/11/21 08:38:53;;;;;;;25.13;19.03;;;-0.60;99.90;;;;;;5005341;28;20191;-75
2022/11/21 08:44:15;;;;;;;16.17;12.80;;;-0.50;99.90;;;;;;5005003;28;20219;-77
2022/11/21 08:46:41;;;;;;;13.33;10.53;;;-0.30;99.90;;;;;;5004935;28;20183;-77
2022/11/21 08:49:07;;;;;;;14.90;10.70;;;-0.10;99.90;;;;;;5004709;28;20179;-75
2022/11/21 08:51:48;;;;;;;11.77;9.77;;;0.00;99.90;;;;;;5005182;28;20238;-76
2022/11/21 08:54:14;;;;;;;14.23;10.77;;;0.10;80.40;;;;;;5004709;28;20191;-76
2022/11/21 08:56:40;;;;;;;13.57;10.50;;;0.10;83.70;;;;;;5004864;28;20591;-77
2022/11/21 08:59:05;;;;;;;13.47;10.73;;;0.20;64.30;;;;;;5005285;28;20196;-77
2022/11/21 09:01:31;;;;;;;12.83;10.20;;;0.20;64.90;;;;;;5004915;28;20183;-77
2022/11/21 09:03:56;;;;;;;12.50;10.07;;;0.20;45.00;;;;;;5005235;28;20329;-77
2022/11/21 09:06:22;;;;;;;13.37;10.07;;;0.10;60.80;;;;;;5006702;28;20362;-76
2022/11/21 09:08:47;;;;;;;12.33;10.13;;;0.30;45.60;;;;;;5014156;28;20179;-78
2022/11/21 09:11:13;;;;;;;13.43;10.50;;;0.30;49.30;;;;;;5010376;28;20183;-77
2022/11/21 09:13:38;;;;;;;12.43;9.83;;;0.40;30.30;;;;;;5005270;28;20191;-74
2022/11/21 09:18:51;;;;;;;12.23;10.10;;;0.40;23.60;;;;;;5005613;28;20241;-76
2022/11/21 09:21:18;;;;;;;11.90;9.87;;;0.40;32.00;;;;;;5005130;28;20187;-76
2022/11/21 09:23:44;;;;;;;13.40;10.00;;;0.50;27.40;;;;;;5004546;28;20569;-77
2022/11/21 09:26:10;;;;;;;11.77;8.80;;;0.50;32.00;;;;;;5006062;28;20214;-77
2022/11/21 09:28:36;;;;;;;9.53;8.27;;;0.80;23.70;;;;;;5006066;28;20180;-76
2022/11/21 09:31:03;;;;;;;11.90;9.33;;;0.70;19.90;;;;;;5004986;28;20553;-76
2022/11/21 09:33:29;;;;;;;12.33;9.77;;;0.60;32.00;;;;;;5006462;28;20656;-76
2022/11/21 09:35:58;;;;;;;12.87;9.10;;;0.60;31.80;;;;;;5005871;28;20278;-77
2022/11/21 09:38:25;;;;;;;13.13;8.93;;;0.80;14.70;;;;;;5004412;28;20202;-76
2022/11/21 09:40:53;;;;;;;12.17;8.53;;;0.80;6.40;;;;;;5005747;28;20192;-76
2022/11/21 09:43:34;;;;;;;11.30;8.80;;;0.80;5.10;;;;;;5005761;28;20207;-76
2022/11/21 09:46:13;;;;;;;13.13;9.77;;;0.80;2.80;;;;;;5006751;28;20204;-76
2022/11/21 09:48:57;;;;;;;10.40;8.50;;;0.90;11.10;;;;;;5005555;28;20179;-76
2022/11/21 09:51:24;;;;;;;13.20;10.17;;;0.90;1.00;;;;;;5005088;28;20291;-76
2022/11/21 09:54:19;;;;;;;11.90;8.60;;;1.00;1.00;;;;;;5001072;28;20194;-76
2022/11/21 09:56:46;;;;;;;12.47;8.87;;;1.00;1.00;;;;;;5003132;28;20199;-77
2022/11/21 09:59:30;;;;;;;10.87;8.73;;;1.10;1.00;;;;;;5005057;28;20179;-75
2022/11/21 10:01:56;;;;;;;11.27;8.40;;;1.00;1.00;;;;;;5001320;28;20199;-75
2022/11/21 10:04:23;;;;;;;12.10;9.07;;;1.00;1.00;;;;;;5004422;28;20207;-75
2022/11/21 10:07:01;;;;;;;18.73;10.20;;;0.80;1.00;;;;;;5002489;28;20203;-76
2022/11/21 10:09:38;;;;;;;12.50;10.40;;;0.70;1.00;;;;;;5004994;28;20233;-78
2022/11/21 10:12:36;;;;;;;10.80;8.87;;;0.80;1.00;;;;;;5003683;28;20195;-76
2022/11/21 10:15:21;;;;;;;10.00;8.43;;;0.80;1.00;;;;;;5001945;28;20243;-73
2022/11/21 10:18:02;;;;;;;10.67;7.70;;;1.10;1.00;;;;;;5004001;28;20187;-75
2022/11/21 10:20:57;;;;;;;9.83;7.50;;;1.10;1.00;;;;;;5004401;28;20310;-74
2022/11/21 10:24:05;;;;;;;10.47;8.00;;;0.30;1.00;;;;;;5017190;28;20973;-75
2022/11/21 10:26:48;;;;;;;9.67;7.70;;;1.20;1.00;;;;;;5003130;28;21232;-75
2022/11/21 10:29:33;;;;;;;11.23;8.60;;;1.00;1.00;;;;;;5002481;28;20192;-75
2022/11/21 10:32:06;;;;;;;10.30;8.10;;;0.90;1.00;;;;;;5003997;28;20187;-77
2022/11/21 10:34:37;;;;;;;13.00;9.27;;;1.00;1.00;;;;;;5004453;28;20211;-77
2022/11/21 10:37:12;;;;;;;10.77;7.77;;;0.90;1.00;;;;;;5001771;28;20195;-75
2022/11/21 10:39:47;;;;;;;89.77;55.73;;;0.80;1.00;;;;;;5002487;28;20274;-76
2022/11/21 10:42:16;;;;;;;10.77;9.07;;;0.80;1.00;;;;;;5003813;28;20205;-75
2022/11/21 10:47:32;;;;;;;10.70;8.67;;;1.00;1.00;;;;;;5007733;28;20246;-77
2022/11/21 10:50:16;;;;;;;18.57;16.63;;;1.10;1.00;;;;;;5007359;28;20187;-76
2022/11/21 10:52:49;;;;;;;12.67;9.67;;;1.20;1.00;;;;;;5005961;28;20310;-77
2022/11/21 10:55:16;;;;;;;12.03;8.20;;;1.20;1.00;;;;;;5004771;28;20265;-76
2022/11/21 10:57:51;;;;;;;13.67;8.90;;;1.20;1.00;;;;;;5007748;28;20184;-75
2022/11/21 11:00:25;;;;;;;11.60;8.83;;;1.00;1.00;;;;;;5006125;28;20187;-76
2022/11/21 11:03:03;;;;;;;11.03;8.57;;;0.90;1.00;;;;;;5004248;28;20688;-77
2022/11/21 11:05:32;;;;;;;9.33;7.77;;;0.70;1.00;;;;;;5017301;28;20217;-77
2022/11/21 11:08:00;;;;;;;13.37;9.27;;;0.60;1.00;;;;;;5001729;28;20188;-77
2022/11/21 11:10:26;;;;;;;11.70;8.73;;;0.60;1.00;;;;;;5002203;28;20215;-76
2022/11/21 11:15:50;;;;;;;11.70;8.03;;;0.60;1.00;;;;;;5002065;28;20237;-76
2022/11/21 11:18:20;;;;;;;10.83;8.20;;;0.50;1.00;;;;;;5018654;28;20278;-76
2022/11/21 11:20:46;;;;;;;10.50;8.43;;;0.50;1.00;;;;;;5003974;28;20203;-77
2022/11/21 11:23:26;;;;;;;9.80;7.77;;;0.50;1.00;;;;;;5004652;28;20211;-77
2022/11/21 11:25:57;;;;;;;10.90;8.10;;;0.50;1.00;;;;;;5003628;28;20699;-77
2022/11/21 11:28:25;;;;;;;18.37;8.97;;;0.60;1.00;;;;;;5004634;28;20653;-77
2022/11/21 11:30:53;;;;;;;9.83;7.80;;;0.60;1.00;;;;;;5004933;28;20517;-77
2022/11/21 11:33:46;;;;;;;12.40;8.47;;;0.50;1.00;;;;;;5005430;28;20203;-76
2022/11/21 11:36:35;;;;;;;11.20;8.00;;;0.60;1.00;;;;;;5003961;28;20207;-76
2022/11/21 11:39:12;;;;;;;13.47;8.60;;;0.70;1.00;;;;;;5003701;28;20203;-76
2022/11/21 11:48:07;;;;;;;13.07;8.87;;;0.70;1.00;;;;;;5004477;28;20194;-76
2022/11/21 11:50:44;;;;;;;12.43;8.67;;;0.80;1.00;;;;;;5004917;28;20172;-76
2022/11/21 11:53:29;;;;;;;12.00;8.47;;;0.80;1.00;;;;;;5004790;28;20215;-77
2022/11/21 11:56:19;;;;;;;13.93;10.30;;;0.70;1.00;;;;;;5004293;28;20211;-76
2022/11/21 11:58:50;;;;;;;11.97;9.07;;;0.70;1.00;;;;;;5004789;28;20191;-75
2022/11/21 12:01:23;;;;;;;13.00;9.97;;;0.70;1.00;;;;;;5004399;28;20274;-76
2022/11/21 12:04:12;;;;;;;12.87;8.93;;;0.60;1.00;;;;;;5005454;28;20218;-77
2022/11/21 12:06:58;;;;;;;18.83;16.40;;;0.80;1.00;;;;;;5005107;28;20275;-77
2022/11/21 12:09:33;;;;;;;15.20;11.33;;;0.90;1.00;;;;;;5002580;28;20179;-77
2022/11/21 12:12:37;;;;;;;25.77;20.13;;;0.90;1.00;;;;;;5002914;28;20279;-75
2022/11/21 12:18:19;;;;;;;18.60;13.30;;;0.90;1.00;;;;;;5003608;28;20257;-77
2022/11/21 12:21:13;;;;;;;15.13;11.60;;;0.90;1.00;;;;;;5002363;28;20183;-77
2022/11/21 12:23:42;;;;;;;24.47;18.23;;;1.10;1.00;;;;;;5001843;28;20207;-77
2022/11/21 12:26:19;;;;;;;19.37;14.30;;;1.00;1.00;;;;;;5000783;28;20199;-76
2022/11/21 12:28:53;;;;;;;24.80;17.93;;;1.00;1.00;;;;;;5003966;28;20182;-77
2022/11/21 12:31:34;;;;;;;34.43;25.87;;;0.90;1.00;;;;;;5002621;28;20684;-76
2022/11/21 12:34:11;;;;;;;24.67;18.80;;;0.90;1.00;;;;;;5002812;28;20249;-77
2022/11/21 12:36:55;;;;;;;50.83;38.13;;;0.90;1.00;;;;;;5002999;28;20618;-77
2022/11/21 12:39:35;;;;;;;22.80;17.07;;;1.00;1.00;;;;;;5003546;28;20187;-77
2022/11/21 12:42:48;;;;;;;46.43;32.57;;;1.00;1.00;;;;;;5003851;28;20198;-77
2022/11/21 12:45:33;;;;;;;26.90;18.07;;;1.00;1.00;;;;;;5002823;28;20203;-77
2022/11/21 12:54:30;;;;;;;24.57;17.27;;;1.00;1.00;;;;;;5003087;28;20839;-76
2022/11/21 12:57:02;;;;;;;12.80;9.10;;;0.90;1.00;;;;;;5003101;28;20190;-75
2022/11/21 12:59:30;;;;;;;11.97;8.90;;;0.80;1.00;;;;;;5003246;28;20194;-76
2022/11/21 13:02:05;;;;;;;12.03;8.90;;;0.70;1.00;;;;;;5003529;28;20265;-75
2022/11/21 13:04:37;;;;;;;13.17;9.63;;;0.80;1.00;;;;;;5003119;28;20222;-76
2022/11/21 13:07:04;;;;;;;17.73;13.43;;;0.80;1.00;;;;;;5002342;28;20187;-76
2022/11/21 13:09:37;;;;;;;13.60;9.23;;;0.80;1.00;;;;;;5003658;28;20180;-76
2022/11/21 13:12:12;;;;;;;15.17;10.40;;;0.70;1.00;;;;;;5003388;28;20180;-76
2022/11/21 13:14:49;;;;;;;22.70;18.93;;;0.80;1.00;;;;;;5003214;28;20289;-76
2022/11/21 13:17:33;;;;;;;16.90;13.60;;;0.90;1.00;;;;;;5003618;28;20187;-76
2022/11/21 13:20:14;;;;;;;14.83;11.23;;;0.90;1.00;;;;;;5002714;28;20723;-76
2022/11/21 13:22:39;;;;;;;14.73;11.30;;;0.90;1.00;;;;;;5003066;28;20218;-76